sensor_id;sensor_type;location;lat;lon;timestamp;pressure;altitude;pressure_sealevel;temperature;humidity
69630;BME280;56857;52.212;5.496;2022-07-29T00:01:26;101860.75;;;16.03;64.95
69630;BME280;56857;52.212;5.496;2022-07-29T00:03:51;101857.72;;;16.06;64.82
69630;BME280;56857;52.212;5.496;2022-07-29T00:06:17;101861.41;;;16.05;64.81
69630;BME280;56857;52.212;5.496;2022-07-29T00:08:42;101856.06;;;16.05;65.12
69630;BME280;56857;52.212;5.496;2022-07-29T00:11:07;101852.56;;;16.05;64.93
69630;BME280;56857;52.212;5.496;2022-07-29T00:13:33;101849.22;;;16.03;65.24
69630;BME280;56857;52.212;5.496;2022-07-29T00:15:59;101853.91;;;16.01;65.05
69630;BME280;56857;52.212;5.496;2022-07-29T00:18:24;101846.72;;;16.01;65.53
69630;BME280;56857;52.212;5.496;2022-07-29T00:20:49;101840.91;;;15.97;65.07
69630;BME280;56857;52.212;5.496;2022-07-29T00:23:15;101845.44;;;15.97;65.30
69630;BME280;56857;52.212;5.496;2022-07-29T00:25:40;101838.59;;;15.94;65.71
69630;BME280;56857;52.212;5.496;2022-07-29T00:28:05;101837.31;;;15.90;65.85
69630;BME280;56857;52.212;5.496;2022-07-29T00:30:31;101827.63;;;15.89;65.80
69630;BME280;56857;52.212;5.496;2022-07-29T00:32:56;101829.63;;;15.87;65.98
69630;BME280;56857;52.212;5.496;2022-07-29T00:35:22;101829.44;;;15.89;66.09
69630;BME280;56857;52.212;5.496;2022-07-29T00:37:47;101822.63;;;15.86;65.63
69630;BME280;56857;52.212;5.496;2022-07-29T00:40:12;101817.47;;;15.85;65.92
69630;BME280;56857;52.212;5.496;2022-07-29T00:42:45;101819.97;;;15.86;65.47
69630;BME280;56857;52.212;5.496;2022-07-29T00:45:11;101816.28;;;15.87;65.80
69630;BME280;56857;52.212;5.496;2022-07-29T00:47:37;101808.59;;;15.84;65.63
69630;BME280;56857;52.212;5.496;2022-07-29T00:50:07;101816.16;;;15.81;66.19
69630;BME280;56857;52.212;5.496;2022-07-29T00:52:33;101813.66;;;15.79;66.13
69630;BME280;56857;52.212;5.496;2022-07-29T00:55:00;101811.84;;;15.80;66.07
69630;BME280;56857;52.212;5.496;2022-07-29T00:57:27;101803.16;;;15.78;66.28
69630;BME280;56857;52.212;5.496;2022-07-29T00:59:53;101800.66;;;15.76;66.24
69630;BME280;56857;52.212;5.496;2022-07-29T01:02:19;101804.53;;;15.73;66.14
69630;BME280;56857;52.212;5.496;2022-07-29T01:04:44;101794.38;;;15.69;66.41
69630;BME280;56857;52.212;5.496;2022-07-29T01:07:10;101797.03;;;15.69;66.05
69630;BME280;56857;52.212;5.496;2022-07-29T01:09:36;101789.03;;;15.69;66.26
69630;BME280;56857;52.212;5.496;2022-07-29T01:12:03;101793.53;;;15.68;66.13
69630;BME280;56857;52.212;5.496;2022-07-29T01:14:29;101793.88;;;15.65;66.19
69630;BME280;56857;52.212;5.496;2022-07-29T01:17:00;101797.56;;;15.64;66.09
69630;BME280;56857;52.212;5.496;2022-07-29T01:19:47;101785.19;;;15.63;66.34
69630;BME280;56857;52.212;5.496;2022-07-29T01:25:12;101786.88;;;15.64;66.12
69630;BME280;56857;52.212;5.496;2022-07-29T01:30:38;101787.69;;;15.65;66.03
69630;BME280;56857;52.212;5.496;2022-07-29T01:33:07;101779.84;;;15.63;66.05
69630;BME280;56857;52.212;5.496;2022-07-29T01:35:41;101779.84;;;15.63;66.12
69630;BME280;56857;52.212;5.496;2022-07-29T01:38:17;101778.38;;;15.61;65.90
69630;BME280;56857;52.212;5.496;2022-07-29T01:40:49;101777.25;;;15.55;66.34
69630;BME280;56857;52.212;5.496;2022-07-29T01:43:19;101780.09;;;15.53;66.31
69630;BME280;56857;52.212;5.496;2022-07-29T01:46:04;101774.56;;;15.55;66.37
69630;BME280;56857;52.212;5.496;2022-07-29T01:48:40;101782.28;;;15.50;66.84
69630;BME280;56857;52.212;5.496;2022-07-29T01:53:36;101772.50;;;15.42;66.58
69630;BME280;56857;52.212;5.496;2022-07-29T01:56:04;101777.66;;;15.44;66.68
69630;BME280;56857;52.212;5.496;2022-07-29T01:58:31;101784.50;;;15.46;66.06
69630;BME280;56857;52.212;5.496;2022-07-29T02:00:59;101780.16;;;15.45;66.26
69630;BME280;56857;52.212;5.496;2022-07-29T02:03:25;101794.16;;;15.47;66.20
69630;BME280;56857;52.212;5.496;2022-07-29T02:05:52;101779.81;;;15.48;66.07
69630;BME280;56857;52.212;5.496;2022-07-29T02:08:19;101785.31;;;15.47;66.13
69630;BME280;56857;52.212;5.496;2022-07-29T02:10:47;101781.34;;;15.43;66.21
69630;BME280;56857;52.212;5.496;2022-07-29T02:13:13;101782.19;;;15.43;66.16
69630;BME280;56857;52.212;5.496;2022-07-29T02:15:41;101783.34;;;15.41;66.24
69630;BME280;56857;52.212;5.496;2022-07-29T02:18:09;101783.56;;;15.39;66.22
69630;BME280;56857;52.212;5.496;2022-07-29T02:20:37;101792.38;;;15.40;66.42
69630;BME280;56857;52.212;5.496;2022-07-29T02:23:04;101797.75;;;15.40;66.20
69630;BME280;56857;52.212;5.496;2022-07-29T02:25:29;101790.53;;;15.40;66.29
69630;BME280;56857;52.212;5.496;2022-07-29T02:27:58;101788.53;;;15.42;66.26
69630;BME280;56857;52.212;5.496;2022-07-29T02:30:25;101789.53;;;15.41;66.08
69630;BME280;56857;52.212;5.496;2022-07-29T02:32:51;101789.53;;;15.41;66.14
69630;BME280;56857;52.212;5.496;2022-07-29T02:35:18;101782.38;;;15.42;66.36
69630;BME280;56857;52.212;5.496;2022-07-29T02:37:45;101783.00;;;15.44;66.17
69630;BME280;56857;52.212;5.496;2022-07-29T02:40:13;101782.00;;;15.45;65.95
69630;BME280;56857;52.212;5.496;2022-07-29T02:42:42;101774.34;;;15.42;66.38
69630;BME280;56857;52.212;5.496;2022-07-29T02:45:09;101773.34;;;15.43;65.96
69630;BME280;56857;52.212;5.496;2022-07-29T02:47:39;101775.34;;;15.41;66.37
69630;BME280;56857;52.212;5.496;2022-07-29T02:50:15;101768.50;;;15.38;66.73
69630;BME280;56857;52.212;5.496;2022-07-29T02:55:43;101766.94;;;15.29;66.65
69630;BME280;56857;52.212;5.496;2022-07-29T02:58:18;101768.75;;;15.28;66.67
69630;BME280;56857;52.212;5.496;2022-07-29T03:00:46;101778.78;;;15.26;66.99
69630;BME280;56857;52.212;5.496;2022-07-29T03:03:15;101773.63;;;15.25;66.76
69630;BME280;56857;52.212;5.496;2022-07-29T03:05:41;101769.97;;;15.26;66.53
69630;BME280;56857;52.212;5.496;2022-07-29T03:08:09;101760.25;;;15.25;66.71
69630;BME280;56857;52.212;5.496;2022-07-29T03:10:37;101777.31;;;15.24;66.82
69630;BME280;56857;52.212;5.496;2022-07-29T03:13:04;101771.13;;;15.23;66.90
69630;BME280;56857;52.212;5.496;2022-07-29T03:15:30;101773.97;;;15.22;67.10
69630;BME280;56857;52.212;5.496;2022-07-29T03:17:56;101768.69;;;15.14;67.33
69630;BME280;56857;52.212;5.496;2022-07-29T03:20:22;101767.00;;;15.13;67.53
69630;BME280;56857;52.212;5.496;2022-07-29T03:22:47;101762.69;;;15.12;67.59
69630;BME280;56857;52.212;5.496;2022-07-29T03:25:15;101769.22;;;15.09;67.62
69630;BME280;56857;52.212;5.496;2022-07-29T03:27:40;101761.88;;;15.11;67.27
69630;BME280;56857;52.212;5.496;2022-07-29T03:30:07;101767.88;;;15.13;67.34
69630;BME280;56857;52.212;5.496;2022-07-29T03:32:33;101764.81;;;15.16;67.17
69630;BME280;56857;52.212;5.496;2022-07-29T03:34:59;101761.50;;;15.14;67.60
69630;BME280;56857;52.212;5.496;2022-07-29T03:37:24;101763.53;;;15.12;68.01
69630;BME280;56857;52.212;5.496;2022-07-29T03:39:51;101760.72;;;15.05;68.08
69630;BME280;56857;52.212;5.496;2022-07-29T03:42:19;101758.28;;;14.96;69.69
69630;BME280;56857;52.212;5.496;2022-07-29T03:44:47;101747.63;;;14.88;69.30
69630;BME280;56857;52.212;5.496;2022-07-29T03:47:15;101754.47;;;14.90;69.04
69630;BME280;56857;52.212;5.496;2022-07-29T03:49:44;101747.47;;;14.89;69.11
69630;BME280;56857;52.212;5.496;2022-07-29T03:52:13;101748.00;;;14.84;69.52
69630;BME280;56857;52.212;5.496;2022-07-29T03:54:38;101749.00;;;14.83;69.61
69630;BME280;56857;52.212;5.496;2022-07-29T03:57:05;101743.19;;;14.80;69.71
69630;BME280;56857;52.212;5.496;2022-07-29T03:59:32;101745.06;;;14.71;70.14
69630;BME280;56857;52.212;5.496;2022-07-29T04:01:58;101739.25;;;14.68;69.97
69630;BME280;56857;52.212;5.496;2022-07-29T04:04:24;101739.91;;;14.70;70.01
69630;BME280;56857;52.212;5.496;2022-07-29T04:06:50;101737.25;;;14.70;70.00
69630;BME280;56857;52.212;5.496;2022-07-29T04:09:15;101740.91;;;14.69;70.52
69630;BME280;56857;52.212;5.496;2022-07-29T04:11:41;101747.44;;;14.66;70.82
69630;BME280;56857;52.212;5.496;2022-07-29T04:14:06;101742.25;;;14.65;70.68
69630;BME280;56857;52.212;5.496;2022-07-29T04:16:32;101740.59;;;14.64;70.93
69630;BME280;56857;52.212;5.496;2022-07-29T04:18:58;101745.94;;;14.64;71.27
69630;BME280;56857;52.212;5.496;2022-07-29T04:21:23;101730.75;;;14.64;71.29
69630;BME280;56857;52.212;5.496;2022-07-29T04:23:48;101732.88;;;14.69;70.91
69630;BME280;56857;52.212;5.496;2022-07-29T04:26:14;101738.38;;;14.75;70.69
69630;BME280;56857;52.212;5.496;2022-07-29T04:28:39;101736.34;;;14.77;70.52
69630;BME280;56857;52.212;5.496;2022-07-29T04:31:04;101736.00;;;14.80;70.42
69630;BME280;56857;52.212;5.496;2022-07-29T04:33:29;101734.88;;;14.75;70.84
69630;BME280;56857;52.212;5.496;2022-07-29T04:35:55;101733.22;;;14.74;70.63
69630;BME280;56857;52.212;5.496;2022-07-29T04:38:20;101737.59;;;14.67;71.19
69630;BME280;56857;52.212;5.496;2022-07-29T04:40:45;101734.25;;;14.65;71.03
69630;BME280;56857;52.212;5.496;2022-07-29T04:43:11;101726.13;;;14.58;71.57
69630;BME280;56857;52.212;5.496;2022-07-29T04:45:36;101735.13;;;14.57;71.59
69630;BME280;56857;52.212;5.496;2022-07-29T04:48:02;101735.78;;;14.59;71.44
69630;BME280;56857;52.212;5.496;2022-07-29T04:50:27;101745.13;;;14.63;71.69
69630;BME280;56857;52.212;5.496;2022-07-29T04:52:53;101744.59;;;14.68;71.09
69630;BME280;56857;52.212;5.496;2022-07-29T04:55:18;101747.72;;;14.71;70.97
69630;BME280;56857;52.212;5.496;2022-07-29T04:57:43;101740.88;;;14.77;70.76
69630;BME280;56857;52.212;5.496;2022-07-29T05:00:09;101733.69;;;14.77;71.09
69630;BME280;56857;52.212;5.496;2022-07-29T05:02:34;101738.69;;;14.80;71.10
69630;BME280;56857;52.212;5.496;2022-07-29T05:05:00;101737.03;;;14.79;70.95
69630;BME280;56857;52.212;5.496;2022-07-29T05:07:25;101734.16;;;14.81;70.99
69630;BME280;56857;52.212;5.496;2022-07-29T05:09:50;101729.50;;;14.83;70.63
69630;BME280;56857;52.212;5.496;2022-07-29T05:12:16;101730.84;;;14.79;71.00
69630;BME280;56857;52.212;5.496;2022-07-29T05:14:41;101737.19;;;14.78;70.92
69630;BME280;56857;52.212;5.496;2022-07-29T05:17:06;101742.72;;;14.76;71.10
69630;BME280;56857;52.212;5.496;2022-07-29T05:19:32;101753.06;;;14.71;71.89
69630;BME280;56857;52.212;5.496;2022-07-29T05:21:58;101754.94;;;14.63;71.82
69630;BME280;56857;52.212;5.496;2022-07-29T05:24:23;101748.97;;;14.60;72.08
69630;BME280;56857;52.212;5.496;2022-07-29T05:26:49;101744.59;;;14.59;72.20
69630;BME280;56857;52.212;5.496;2022-07-29T05:29:14;101746.28;;;14.60;71.86
69630;BME280;56857;52.212;5.496;2022-07-29T05:31:39;101750.47;;;14.63;71.99
69630;BME280;56857;52.212;5.496;2022-07-29T05:34:04;101747.09;;;14.69;71.86
69630;BME280;56857;52.212;5.496;2022-07-29T05:36:30;101750.25;;;14.73;71.48
69630;BME280;56857;52.212;5.496;2022-07-29T05:38:55;101741.22;;;14.74;71.83
69630;BME280;56857;52.212;5.496;2022-07-29T05:41:20;101752.25;;;14.71;71.91
69630;BME280;56857;52.212;5.496;2022-07-29T05:43:46;101749.41;;;14.72;71.63
69630;BME280;56857;52.212;5.496;2022-07-29T05:46:12;101752.03;;;14.80;71.67
69630;BME280;56857;52.212;5.496;2022-07-29T05:48:37;101751.00;;;14.81;71.49
69630;BME280;56857;52.212;5.496;2022-07-29T05:51:03;101752.16;;;14.87;71.63
69630;BME280;56857;52.212;5.496;2022-07-29T05:53:28;101752.16;;;14.87;71.71
69630;BME280;56857;52.212;5.496;2022-07-29T05:55:53;101759.19;;;14.88;71.54
69630;BME280;56857;52.212;5.496;2022-07-29T05:58:19;101762.00;;;14.87;71.61
69630;BME280;56857;52.212;5.496;2022-07-29T06:00:44;101761.50;;;14.91;71.44
69630;BME280;56857;52.212;5.496;2022-07-29T06:03:10;101766.63;;;14.93;71.52
69630;BME280;56857;52.212;5.496;2022-07-29T06:05:35;101766.28;;;14.96;71.01
69630;BME280;56857;52.212;5.496;2022-07-29T06:08:00;101764.94;;;15.00;70.97
69630;BME280;56857;52.212;5.496;2022-07-29T06:10:26;101770.59;;;15.05;70.82
69630;BME280;56857;52.212;5.496;2022-07-29T06:12:51;101777.88;;;15.11;71.05
69630;BME280;56857;52.212;5.496;2022-07-29T06:15:16;101776.72;;;15.14;70.90
69630;BME280;56857;52.212;5.496;2022-07-29T06:17:42;101779.50;;;15.20;70.49
69630;BME280;56857;52.212;5.496;2022-07-29T06:20:08;101779.97;;;15.24;70.93
69630;BME280;56857;52.212;5.496;2022-07-29T06:22:33;101779.44;;;15.28;70.62
69630;BME280;56857;52.212;5.496;2022-07-29T06:25:00;101777.06;;;15.34;71.27
69630;BME280;56857;52.212;5.496;2022-07-29T06:27:26;101781.69;;;15.40;70.85
69630;BME280;56857;52.212;5.496;2022-07-29T06:29:51;101790.03;;;15.45;71.41
69630;BME280;56857;52.212;5.496;2022-07-29T06:32:16;101796.31;;;15.52;71.39
69630;BME280;56857;52.212;5.496;2022-07-29T06:34:42;101803.25;;;15.61;71.08
69630;BME280;56857;52.212;5.496;2022-07-29T06:37:08;101814.75;;;15.70;70.79
69630;BME280;56857;52.212;5.496;2022-07-29T06:39:35;101813.84;;;15.78;70.51
69630;BME280;56857;52.212;5.496;2022-07-29T06:42:00;101805.09;;;15.84;70.27
69630;BME280;56857;52.212;5.496;2022-07-29T06:44:26;101814.63;;;15.86;69.85
69630;BME280;56857;52.212;5.496;2022-07-29T06:46:51;101812.22;;;15.91;69.86
69630;BME280;56857;52.212;5.496;2022-07-29T06:49:16;101805.16;;;15.98;69.63
69630;BME280;56857;52.212;5.496;2022-07-29T06:51:42;101797.97;;;15.99;69.67
69630;BME280;56857;52.212;5.496;2022-07-29T06:54:07;101797.13;;;15.98;69.33
69630;BME280;56857;52.212;5.496;2022-07-29T06:56:33;101807.28;;;16.03;69.02
69630;BME280;56857;52.212;5.496;2022-07-29T06:58:59;101809.94;;;16.03;69.22
69630;BME280;56857;52.212;5.496;2022-07-29T07:01:24;101802.38;;;16.07;69.30
69630;BME280;56857;52.212;5.496;2022-07-29T07:03:49;101797.88;;;16.07;68.81
69630;BME280;56857;52.212;5.496;2022-07-29T07:06:15;101797.22;;;16.05;68.88
69630;BME280;56857;52.212;5.496;2022-07-29T07:08:40;101797.88;;;16.07;69.18
69630;BME280;56857;52.212;5.496;2022-07-29T07:11:05;101797.78;;;16.15;69.03
69630;BME280;56857;52.212;5.496;2022-07-29T07:13:31;101808.44;;;16.24;68.51
69630;BME280;56857;52.212;5.496;2022-07-29T07:15:56;101809.88;;;16.26;68.49
69630;BME280;56857;52.212;5.496;2022-07-29T07:18:21;101817.81;;;16.34;68.91
69630;BME280;56857;52.212;5.496;2022-07-29T07:20:47;101812.84;;;16.31;69.47
69630;BME280;56857;52.212;5.496;2022-07-29T07:23:12;101810.34;;;16.44;68.72
69630;BME280;56857;52.212;5.496;2022-07-29T07:25:38;101812.13;;;16.52;68.97
69630;BME280;56857;52.212;5.496;2022-07-29T07:28:04;101815.06;;;16.57;68.76
69630;BME280;56857;52.212;5.496;2022-07-29T07:30:29;101815.34;;;16.62;68.29
69630;BME280;56857;52.212;5.496;2022-07-29T07:32:54;101805.53;;;16.69;68.11
69630;BME280;56857;52.212;5.496;2022-07-29T07:35:20;101811.19;;;16.75;68.21
69630;BME280;56857;52.212;5.496;2022-07-29T07:37:45;101798.81;;;16.88;67.60
69630;BME280;56857;52.212;5.496;2022-07-29T07:40:11;101810.34;;;16.89;67.08
69630;BME280;56857;52.212;5.496;2022-07-29T07:42:38;101813.47;;;16.92;66.81
69630;BME280;56857;52.212;5.496;2022-07-29T07:45:04;101801.84;;;17.00;67.33
69630;BME280;56857;52.212;5.496;2022-07-29T07:47:30;101793.94;;;17.13;67.00
69630;BME280;56857;52.212;5.496;2022-07-29T07:49:55;101786.13;;;17.12;66.93
69630;BME280;56857;52.212;5.496;2022-07-29T07:52:21;101794.78;;;17.14;67.01
69630;BME280;56857;52.212;5.496;2022-07-29T07:54:47;101787.63;;;17.21;66.82
69630;BME280;56857;52.212;5.496;2022-07-29T07:57:14;101789.31;;;17.22;67.19
69630;BME280;56857;52.212;5.496;2022-07-29T07:59:40;101784.47;;;17.32;66.79
69630;BME280;56857;52.212;5.496;2022-07-29T08:02:07;101785.41;;;17.46;67.11
69630;BME280;56857;52.212;5.496;2022-07-29T08:04:32;101783.94;;;17.65;66.66
69630;BME280;56857;52.212;5.496;2022-07-29T08:06:58;101783.63;;;17.75;66.42
69630;BME280;56857;52.212;5.496;2022-07-29T08:09:25;101786.63;;;17.87;66.04
69630;BME280;56857;52.212;5.496;2022-07-29T08:11:51;101779.25;;;17.95;65.35
69630;BME280;56857;52.212;5.496;2022-07-29T08:14:17;101782.81;;;18.02;65.49
69630;BME280;56857;52.212;5.496;2022-07-29T08:16:42;101781.03;;;18.10;65.70
69630;BME280;56857;52.212;5.496;2022-07-29T08:19:08;101773.81;;;18.10;65.66
69630;BME280;56857;52.212;5.496;2022-07-29T08:21:33;101771.78;;;18.19;65.52
69630;BME280;56857;52.212;5.496;2022-07-29T08:23:58;101767.13;;;18.34;65.06
69630;BME280;56857;52.212;5.496;2022-07-29T08:26:24;101770.22;;;18.38;64.38
69630;BME280;56857;52.212;5.496;2022-07-29T08:28:49;101767.94;;;18.35;64.91
69630;BME280;56857;52.212;5.496;2022-07-29T08:31:14;101774.19;;;18.42;65.38
69630;BME280;56857;52.212;5.496;2022-07-29T08:33:40;101781.50;;;18.55;64.40
69630;BME280;56857;52.212;5.496;2022-07-29T08:36:06;101786.63;;;18.49;64.12
69630;BME280;56857;52.212;5.496;2022-07-29T08:38:31;101788.44;;;18.42;63.28
69630;BME280;56857;52.212;5.496;2022-07-29T08:40:58;101787.66;;;18.48;63.84
69630;BME280;56857;52.212;5.496;2022-07-29T08:43:23;101788.75;;;18.61;63.69
69630;BME280;56857;52.212;5.496;2022-07-29T08:45:50;101784.66;;;18.71;63.40
69630;BME280;56857;52.212;5.496;2022-07-29T08:48:18;101789.66;;;18.74;63.30
69630;BME280;56857;52.212;5.496;2022-07-29T08:50:47;101780.16;;;18.79;63.31
69630;BME280;56857;52.212;5.496;2022-07-29T08:53:15;101787.59;;;18.77;62.97
69630;BME280;56857;52.212;5.496;2022-07-29T08:55:46;101783.00;;;18.70;62.95
69630;BME280;56857;52.212;5.496;2022-07-29T08:58:13;101785.25;;;18.67;63.26
69630;BME280;56857;52.212;5.496;2022-07-29T09:00:44;101788.09;;;18.52;64.33
69630;BME280;56857;52.212;5.496;2022-07-29T09:03:12;101785.41;;;18.52;64.38
69630;BME280;56857;52.212;5.496;2022-07-29T09:05:41;101787.72;;;18.62;64.67
69630;BME280;56857;52.212;5.496;2022-07-29T09:08:07;101791.66;;;18.66;63.82
69630;BME280;56857;52.212;5.496;2022-07-29T09:10:35;101789.66;;;18.74;62.58
69630;BME280;56857;52.212;5.496;2022-07-29T09:13:00;101795.31;;;18.93;60.96
69630;BME280;56857;52.212;5.496;2022-07-29T09:15:25;101780.47;;;19.10;62.11
69630;BME280;56857;52.212;5.496;2022-07-29T09:17:51;101790.47;;;19.36;62.26
69630;BME280;56857;52.212;5.496;2022-07-29T09:20:20;101791.53;;;19.49;61.38
69630;BME280;56857;52.212;5.496;2022-07-29T09:22:46;101795.63;;;19.44;61.30
69630;BME280;56857;52.212;5.496;2022-07-29T09:25:12;101796.69;;;19.43;61.09
69630;BME280;56857;52.212;5.496;2022-07-29T09:27:38;101800.41;;;19.49;60.99
69630;BME280;56857;52.212;5.496;2022-07-29T09:30:06;101794.00;;;19.57;60.42
69630;BME280;56857;52.212;5.496;2022-07-29T09:32:33;101792.59;;;19.67;59.97
69630;BME280;56857;52.212;5.496;2022-07-29T09:35:19;101794.44;;;20.07;60.71
69630;BME280;56857;52.212;5.496;2022-07-29T09:37:45;101805.41;;;20.12;59.50
69630;BME280;56857;52.212;5.496;2022-07-29T09:40:19;101804.78;;;20.17;59.75
69630;BME280;56857;52.212;5.496;2022-07-29T09:42:45;101799.63;;;20.15;58.65
69630;BME280;56857;52.212;5.496;2022-07-29T09:45:11;101800.38;;;20.35;59.24
69630;BME280;56857;52.212;5.496;2022-07-29T09:47:45;101791.63;;;20.67;57.92
69630;BME280;56857;52.212;5.496;2022-07-29T09:50:11;101804.00;;;20.81;57.83
69630;BME280;56857;52.212;5.496;2022-07-29T09:52:48;101790.06;;;20.91;58.20
69630;BME280;56857;52.212;5.496;2022-07-29T09:55:13;101793.53;;;21.04;57.58
69630;BME280;56857;52.212;5.496;2022-07-29T09:57:39;101785.22;;;21.06;57.63
69630;BME280;56857;52.212;5.496;2022-07-29T10:00:08;101790.38;;;21.08;55.97
69630;BME280;56857;52.212;5.496;2022-07-29T10:02:36;101781.03;;;21.48;56.32
69630;BME280;56857;52.212;5.496;2022-07-29T10:05:04;101783.06;;;21.78;55.67
69630;BME280;56857;52.212;5.496;2022-07-29T10:07:50;101786.19;;;22.00;54.63
69630;BME280;56857;52.212;5.496;2022-07-29T10:10:23;101785.25;;;21.69;53.86
69630;BME280;56857;52.212;5.496;2022-07-29T10:15:16;101769.25;;;21.68;55.37
69630;BME280;56857;52.212;5.496;2022-07-29T10:17:41;101771.31;;;21.72;54.56
69630;BME280;56857;52.212;5.496;2022-07-29T10:20:08;101765.91;;;21.72;54.99
69630;BME280;56857;52.212;5.496;2022-07-29T10:22:34;101768.75;;;21.78;54.84
69630;BME280;56857;52.212;5.496;2022-07-29T10:24:59;101777.44;;;22.05;54.45
69630;BME280;56857;52.212;5.496;2022-07-29T10:27:24;101787.63;;;22.03;54.34
69630;BME280;56857;52.212;5.496;2022-07-29T10:29:50;101787.59;;;21.84;54.76
69630;BME280;56857;52.212;5.496;2022-07-29T10:35:44;101787.69;;;21.71;54.15
69630;BME280;56857;52.212;5.496;2022-07-29T10:43:45;101789.94;;;21.99;55.06
69630;BME280;56857;52.212;5.496;2022-07-29T10:46:11;101784.91;;;22.28;52.33
69630;BME280;56857;52.212;5.496;2022-07-29T10:52:08;101785.44;;;22.55;53.45
69630;BME280;56857;52.212;5.496;2022-07-29T10:57:15;101787.00;;;22.99;49.09
69630;BME280;56857;52.212;5.496;2022-07-29T10:59:44;101795.00;;;23.06;49.74
69630;BME280;56857;52.212;5.496;2022-07-29T11:02:40;101787.72;;;23.60;50.01
69630;BME280;56857;52.212;5.496;2022-07-29T11:05:07;101792.72;;;24.22;48.44
69630;BME280;56857;52.212;5.496;2022-07-29T11:07:34;101795.38;;;24.69;47.05
69630;BME280;56857;52.212;5.496;2022-07-29T11:15:04;101793.31;;;25.96;44.96
69630;BME280;56857;52.212;5.496;2022-07-29T11:20:47;101788.88;;;26.72;40.84
69630;BME280;56857;52.212;5.496;2022-07-29T11:23:26;101791.34;;;26.96;42.48
69630;BME280;56857;52.212;5.496;2022-07-29T11:28:42;101785.47;;;27.09;40.63
69630;BME280;56857;52.212;5.496;2022-07-29T11:31:16;101797.81;;;27.49;40.22
69630;BME280;56857;52.212;5.496;2022-07-29T11:33:41;101790.41;;;27.12;41.11
69630;BME280;56857;52.212;5.496;2022-07-29T11:36:10;101792.44;;;27.22;40.72
69630;BME280;56857;52.212;5.496;2022-07-29T11:38:36;101790.72;;;27.43;39.47
69630;BME280;56857;52.212;5.496;2022-07-29T11:43:51;101789.47;;;27.56;38.96
69630;BME280;56857;52.212;5.496;2022-07-29T11:46:46;101798.09;;;27.47;38.06
69630;BME280;56857;52.212;5.496;2022-07-29T11:49:11;101792.75;;;27.95;39.17
69630;BME280;56857;52.212;5.496;2022-07-29T11:51:37;101787.88;;;28.02;38.35
69630;BME280;56857;52.212;5.496;2022-07-29T11:54:04;101786.63;;;28.20;38.57
69630;BME280;56857;52.212;5.496;2022-07-29T11:56:31;101787.47;;;28.78;38.45
69630;BME280;56857;52.212;5.496;2022-07-29T11:59:07;101789.19;;;29.10;37.72
69630;BME280;56857;52.212;5.496;2022-07-29T12:01:33;101789.19;;;29.25;36.65
69630;BME280;56857;52.212;5.496;2022-07-29T12:04:07;101792.06;;;28.73;36.10
69630;BME280;56857;52.212;5.496;2022-07-29T12:06:34;101789.91;;;28.90;36.52
69630;BME280;56857;52.212;5.496;2022-07-29T12:08:59;101794.22;;;28.60;37.04
69630;BME280;56857;52.212;5.496;2022-07-29T12:11:25;101791.47;;;28.50;37.02
69630;BME280;56857;52.212;5.496;2022-07-29T12:13:51;101786.91;;;28.76;37.85
69630;BME280;56857;52.212;5.496;2022-07-29T12:16:17;101785.69;;;28.47;36.90
69630;BME280;56857;52.212;5.496;2022-07-29T12:18:57;101793.13;;;28.56;38.77
69630;BME280;56857;52.212;5.496;2022-07-29T12:21:23;101794.19;;;28.55;38.11
69630;BME280;56857;52.212;5.496;2022-07-29T12:23:55;101788.22;;;28.63;37.62
69630;BME280;56857;52.212;5.496;2022-07-29T12:26:21;101781.41;;;28.71;38.09
69630;BME280;56857;52.212;5.496;2022-07-29T12:28:47;101794.97;;;28.40;37.84
69630;BME280;56857;52.212;5.496;2022-07-29T12:31:13;101785.91;;;28.35;38.82
69630;BME280;56857;52.212;5.496;2022-07-29T12:33:39;101790.38;;;28.56;38.15
69630;BME280;56857;52.212;5.496;2022-07-29T12:36:05;101790.13;;;28.68;37.32
69630;BME280;56857;52.212;5.496;2022-07-29T12:38:30;101791.78;;;28.74;37.70
69630;BME280;56857;52.212;5.496;2022-07-29T12:40:56;101791.25;;;28.72;37.63
69630;BME280;56857;52.212;5.496;2022-07-29T12:43:24;101786.38;;;29.00;37.59
69630;BME280;56857;52.212;5.496;2022-07-29T12:45:54;101790.84;;;29.47;37.71
69630;BME280;56857;52.212;5.496;2022-07-29T12:48:41;101788.94;;;29.32;37.67
69630;BME280;56857;52.212;5.496;2022-07-29T12:51:07;101787.03;;;29.48;37.91
69630;BME280;56857;52.212;5.496;2022-07-29T12:53:33;101783.19;;;29.44;38.12
69630;BME280;56857;52.212;5.496;2022-07-29T12:55:59;101776.63;;;29.55;37.74
69630;BME280;56857;52.212;5.496;2022-07-29T12:58:36;101777.19;;;29.62;36.97
69630;BME280;56857;52.212;5.496;2022-07-29T13:01:13;101786.72;;;29.60;37.74
69630;BME280;56857;52.212;5.496;2022-07-29T13:06:34;101769.53;;;29.79;35.67
69630;BME280;56857;52.212;5.496;2022-07-29T13:09:19;101775.78;;;29.19;34.75
69630;BME280;56857;52.212;5.496;2022-07-29T13:11:46;101775.38;;;28.59;36.77
69630;BME280;56857;52.212;5.496;2022-07-29T13:14:14;101772.53;;;27.81;37.47
69630;BME280;56857;52.212;5.496;2022-07-29T13:17:03;101778.50;;;27.78;39.17
69630;BME280;56857;52.212;5.496;2022-07-29T13:19:40;101765.31;;;27.69;39.08
69630;BME280;56857;52.212;5.496;2022-07-29T13:22:10;101766.81;;;27.50;39.71
69630;BME280;56857;52.212;5.496;2022-07-29T13:27:19;101768.16;;;27.15;39.64
69630;BME280;56857;52.212;5.496;2022-07-29T13:29:45;101772.22;;;26.91;40.81
69630;BME280;56857;52.212;5.496;2022-07-29T13:32:11;101767.38;;;26.93;41.33
69630;BME280;56857;52.212;5.496;2022-07-29T13:34:36;101763.34;;;27.00;41.37
69630;BME280;56857;52.212;5.496;2022-07-29T13:37:02;101766.88;;;27.01;41.37
69630;BME280;56857;52.212;5.496;2022-07-29T13:39:27;101766.72;;;26.86;42.03